sensor_id;sensor_type;location;lat;lon;timestamp;pressure;altitude;pressure_sealevel;temperature;humidity
42591;BME280;28218;53.342;-6.216;2023-03-22T00:02:21;98451.56;;;12.52;100.00
42591;BME280;28218;53.342;-6.216;2023-03-22T00:04:52;98432.34;;;12.57;100.00
42591;BME280;28218;53.342;-6.216;2023-03-22T00:07:20;98430.72;;;12.56;100.00
42591;BME280;28218;53.342;-6.216;2023-03-22T00:09:50;98410.88;;;12.53;100.00
42591;BME280;28218;53.342;-6.216;2023-03-22T00:12:18;98408.50;;;12.52;100.00
42591;BME280;28218;53.342;-6.216;2023-03-22T00:14:46;98420.06;;;12.51;100.00
42591;BME280;28218;53.342;-6.216;2023-03-22T00:17:15;98417.53;;;12.56;100.00
42591;BME280;28218;53.342;-6.216;2023-03-22T00:19:44;98424.66;;;12.56;100.00
42591;BME280;28218;53.342;-6.216;2023-03-22T00:22:13;98425.44;;;12.56;100.00
42591;BME280;28218;53.342;-6.216;2023-03-22T00:24:42;98420.41;;;12.54;100.00
42591;BME280;28218;53.342;-6.216;2023-03-22T00:27:11;98413.53;;;12.53;100.00
42591;BME280;28218;53.342;-6.216;2023-03-22T00:29:40;98419.38;;;12.56;100.00
42591;BME280;28218;53.342;-6.216;2023-03-22T00:32:08;98412.22;;;12.56;100.00
42591;BME280;28218;53.342;-6.216;2023-03-22T00:34:36;98421.00;;;12.57;100.00
42591;BME280;28218;53.342;-6.216;2023-03-22T00:37:04;98441.28;;;12.56;100.00
42591;BME280;28218;53.342;-6.216;2023-03-22T00:39:33;98444.75;;;12.57;100.00
42591;BME280;28218;53.342;-6.216;2023-03-22T00:42:02;98446.69;;;12.61;100.00
42591;BME280;28218;53.342;-6.216;2023-03-22T00:44:32;98431.31;;;12.58;100.00
42591;BME280;28218;53.342;-6.216;2023-03-22T00:47:00;98450.34;;;12.60;100.00
42591;BME280;28218;53.342;-6.216;2023-03-22T00:49:28;98454.84;;;12.60;100.00
42591;BME280;28218;53.342;-6.216;2023-03-22T00:51:57;98485.97;;;12.58;100.00
42591;BME280;28218;53.342;-6.216;2023-03-22T00:54:25;98469.66;;;12.61;100.00
42591;BME280;28218;53.342;-6.216;2023-03-22T00:56:53;98490.47;;;12.57;100.00
42591;BME280;28218;53.342;-6.216;2023-03-22T00:59:21;98490.94;;;12.54;100.00
42591;BME280;28218;53.342;-6.216;2023-03-22T01:01:51;98493.13;;;12.57;100.00
42591;BME280;28218;53.342;-6.216;2023-03-22T01:04:20;98504.00;;;12.61;100.00
42591;BME280;28218;53.342;-6.216;2023-03-22T01:06:52;98522.72;;;12.59;100.00
42591;BME280;28218;53.342;-6.216;2023-03-22T01:09:25;98546.66;;;12.52;100.00
42591;BME280;28218;53.342;-6.216;2023-03-22T01:11:57;98545.84;;;12.52;100.00
42591;BME280;28218;53.342;-6.216;2023-03-22T01:14:26;98587.88;;;12.42;100.00
42591;BME280;28218;53.342;-6.216;2023-03-22T01:16:55;98594.22;;;12.29;100.00
42591;BME280;28218;53.342;-6.216;2023-03-22T01:19:24;98624.16;;;12.23;100.00
42591;BME280;28218;53.342;-6.216;2023-03-22T01:21:53;98623.94;;;12.13;100.00
42591;BME280;28218;53.342;-6.216;2023-03-22T01:24:22;98646.09;;;12.00;100.00
42591;BME280;28218;53.342;-6.216;2023-03-22T01:26:50;98670.25;;;11.85;100.00
42591;BME280;28218;53.342;-6.216;2023-03-22T01:29:19;98682.09;;;11.83;100.00
42591;BME280;28218;53.342;-6.216;2023-03-22T01:31:47;98703.91;;;11.71;100.00
42591;BME280;28218;53.342;-6.216;2023-03-22T01:34:17;98684.38;;;11.61;100.00
42591;BME280;28218;53.342;-6.216;2023-03-22T01:36:45;98741.25;;;11.57;100.00
42591;BME280;28218;53.342;-6.216;2023-03-22T01:39:13;98737.78;;;11.44;100.00
42591;BME280;28218;53.342;-6.216;2023-03-22T01:41:42;98759.91;;;11.43;100.00
42591;BME280;28218;53.342;-6.216;2023-03-22T01:44:12;98767.59;;;11.45;100.00
42591;BME280;28218;53.342;-6.216;2023-03-22T01:46:42;98769.47;;;11.38;100.00
42591;BME280;28218;53.342;-6.216;2023-03-22T01:49:13;98769.72;;;11.36;100.00
42591;BME280;28218;53.342;-6.216;2023-03-22T01:51:45;98770.75;;;11.35;100.00
42591;BME280;28218;53.342;-6.216;2023-03-22T01:54:20;98793.56;;;11.23;100.00
42591;BME280;28218;53.342;-6.216;2023-03-22T01:56:51;98796.22;;;11.23;100.00
42591;BME280;28218;53.342;-6.216;2023-03-22T01:59:20;98801.94;;;11.20;100.00
42591;BME280;28218;53.342;-6.216;2023-03-22T02:01:49;98798.56;;;11.13;100.00
42591;BME280;28218;53.342;-6.216;2023-03-22T02:04:19;98803.81;;;11.13;100.00
42591;BME280;28218;53.342;-6.216;2023-03-22T02:06:51;98808.78;;;11.03;100.00
42591;BME280;28218;53.342;-6.216;2023-03-22T02:09:23;98836.38;;;11.00;100.00
42591;BME280;28218;53.342;-6.216;2023-03-22T02:11:58;98850.66;;;10.92;100.00
42591;BME280;28218;53.342;-6.216;2023-03-22T02:14:53;98858.25;;;10.82;100.00
42591;BME280;28218;53.342;-6.216;2023-03-22T02:17:29;98874.31;;;10.74;100.00
42591;BME280;28218;53.342;-6.216;2023-03-22T02:20:33;98882.69;;;10.64;100.00
42591;BME280;28218;53.342;-6.216;2023-03-22T02:23:46;98894.88;;;10.59;100.00
42591;BME280;28218;53.342;-6.216;2023-03-22T02:26:43;98907.66;;;10.55;100.00
42591;BME280;28218;53.342;-6.216;2023-03-22T02:29:24;98917.78;;;10.52;100.00
42591;BME280;28218;53.342;-6.216;2023-03-22T02:35:26;98927.38;;;10.39;100.00
42591;BME280;28218;53.342;-6.216;2023-03-22T02:41:16;98938.38;;;10.23;100.00
42591;BME280;28218;53.342;-6.216;2023-03-22T02:43:57;98931.09;;;10.25;100.00
42591;BME280;28218;53.342;-6.216;2023-03-22T02:46:34;98935.72;;;10.30;100.00
42591;BME280;28218;53.342;-6.216;2023-03-22T02:49:11;98949.91;;;10.22;100.00
42591;BME280;28218;53.342;-6.216;2023-03-22T02:51:43;98954.56;;;10.20;100.00
42591;BME280;28218;53.342;-6.216;2023-03-22T02:54:20;98946.94;;;10.12;100.00
42591;BME280;28218;53.342;-6.216;2023-03-22T02:56:54;98976.06;;;10.10;100.00
42591;BME280;28218;53.342;-6.216;2023-03-22T02:59:27;98976.28;;;10.09;100.00
42591;BME280;28218;53.342;-6.216;2023-03-22T03:01:59;98982.56;;;10.01;100.00
42591;BME280;28218;53.342;-6.216;2023-03-22T03:04:32;98974.31;;;9.97;100.00
42591;BME280;28218;53.342;-6.216;2023-03-22T03:07:05;98980.56;;;9.96;100.00
42591;BME280;28218;53.342;-6.216;2023-03-22T03:09:35;98991.69;;;9.98;100.00
42591;BME280;28218;53.342;-6.216;2023-03-22T03:12:12;98986.03;;;9.95;100.00
42591;BME280;28218;53.342;-6.216;2023-03-22T03:14:41;98986.44;;;9.92;100.00
42591;BME280;28218;53.342;-6.216;2023-03-22T03:17:17;98999.41;;;9.93;100.00
42591;BME280;28218;53.342;-6.216;2023-03-22T03:19:56;99010.91;;;9.92;100.00
42591;BME280;28218;53.342;-6.216;2023-03-22T03:22:40;99020.88;;;9.84;100.00
42591;BME280;28218;53.342;-6.216;2023-03-22T03:25:16;99010.75;;;9.81;100.00
42591;BME280;28218;53.342;-6.216;2023-03-22T03:27:56;99030.56;;;9.77;100.00
42591;BME280;28218;53.342;-6.216;2023-03-22T03:30:31;99028.34;;;9.73;100.00
42591;BME280;28218;53.342;-6.216;2023-03-22T03:33:06;99030.38;;;9.71;100.00
42591;BME280;28218;53.342;-6.216;2023-03-22T03:35:39;99033.63;;;9.67;100.00
42591;BME280;28218;53.342;-6.216;2023-03-22T03:38:11;99036.03;;;9.68;100.00
42591;BME280;28218;53.342;-6.216;2023-03-22T03:40:41;99047.59;;;9.61;100.00
42591;BME280;28218;53.342;-6.216;2023-03-22T03:43:13;99053.44;;;9.63;100.00
42591;BME280;28218;53.342;-6.216;2023-03-22T03:45:43;99064.78;;;9.57;100.00
42591;BME280;28218;53.342;-6.216;2023-03-22T03:48:15;99074.06;;;9.59;100.00
42591;BME280;28218;53.342;-6.216;2023-03-22T03:50:46;99077.28;;;9.55;100.00
42591;BME280;28218;53.342;-6.216;2023-03-22T03:53:16;99080.75;;;9.48;100.00
42591;BME280;28218;53.342;-6.216;2023-03-22T03:55:44;99103.81;;;9.46;100.00
42591;BME280;28218;53.342;-6.216;2023-03-22T03:58:14;99094.69;;;9.42;100.00
42591;BME280;28218;53.342;-6.216;2023-03-22T04:00:43;99112.47;;;9.40;100.00
42591;BME280;28218;53.342;-6.216;2023-03-22T04:03:13;99104.59;;;9.34;100.00
42591;BME280;28218;53.342;-6.216;2023-03-22T04:05:41;99102.34;;;9.31;100.00
42591;BME280;28218;53.342;-6.216;2023-03-22T04:08:09;99119.75;;;9.32;100.00
42591;BME280;28218;53.342;-6.216;2023-03-22T04:10:38;99129.66;;;9.30;100.00
42591;BME280;28218;53.342;-6.216;2023-03-22T04:13:06;99122.56;;;9.30;100.00
42591;BME280;28218;53.342;-6.216;2023-03-22T04:15:36;99130.44;;;9.30;100.00
42591;BME280;28218;53.342;-6.216;2023-03-22T04:18:04;99130.25;;;9.25;100.00
42591;BME280;28218;53.342;-6.216;2023-03-22T04:20:32;99136.50;;;9.24;100.00
42591;BME280;28218;53.342;-6.216;2023-03-22T04:23:01;99135.06;;;9.21;100.00
42591;BME280;28218;53.342;-6.216;2023-03-22T04:25:29;99130.03;;;9.20;100.00
42591;BME280;28218;53.342;-6.216;2023-03-22T04:27:59;99130.81;;;9.14;100.00
42591;BME280;28218;53.342;-6.216;2023-03-22T04:30:30;99143.97;;;9.14;100.00
42591;BME280;28218;53.342;-6.216;2023-03-22T04:33:04;99142.94;;;9.15;100.00
42591;BME280;28218;53.342;-6.216;2023-03-22T04:35:33;99156.47;;;9.12;100.00
42591;BME280;28218;53.342;-6.216;2023-03-22T04:38:01;99164.34;;;9.12;100.00
42591;BME280;28218;53.342;-6.216;2023-03-22T04:40:29;99163.16;;;9.14;100.00
42591;BME280;28218;53.342;-6.216;2023-03-22T04:43:02;99166.75;;;9.07;100.00
42591;BME280;28218;53.342;-6.216;2023-03-22T04:45:30;99168.34;;;9.01;100.00
42591;BME280;28218;53.342;-6.216;2023-03-22T04:48:03;99168.34;;;9.01;100.00
42591;BME280;28218;53.342;-6.216;2023-03-22T04:50:33;99178.44;;;8.98;100.00
42591;BME280;28218;53.342;-6.216;2023-03-22T04:53:01;99179.47;;;9.03;100.00
42591;BME280;28218;53.342;-6.216;2023-03-22T04:55:29;99167.75;;;8.99;100.00
42591;BME280;28218;53.342;-6.216;2023-03-22T04:57:59;99180.47;;;8.95;100.00
42591;BME280;28218;53.342;-6.216;2023-03-22T05:00:28;99176.59;;;8.91;100.00
42591;BME280;28218;53.342;-6.216;2023-03-22T05:02:56;99184.91;;;8.95;100.00
42591;BME280;28218;53.342;-6.216;2023-03-22T05:05:26;99186.31;;;8.98;100.00
42591;BME280;28218;53.342;-6.216;2023-03-22T05:07:54;99193.59;;;8.95;100.00
42591;BME280;28218;53.342;-6.216;2023-03-22T05:10:23;99194.78;;;8.93;100.00
42591;BME280;28218;53.342;-6.216;2023-03-22T05:12:51;99190.75;;;8.97;100.00
42591;BME280;28218;53.342;-6.216;2023-03-22T05:15:19;99194.78;;;8.93;100.00
42591;BME280;28218;53.342;-6.216;2023-03-22T05:17:47;99192.97;;;8.93;100.00
42591;BME280;28218;53.342;-6.216;2023-03-22T05:20:15;99187.50;;;8.88;100.00
42591;BME280;28218;53.342;-6.216;2023-03-22T05:22:46;99200.03;;;8.86;100.00
42591;BME280;28218;53.342;-6.216;2023-03-22T05:25:16;99199.00;;;8.87;100.00
42591;BME280;28218;53.342;-6.216;2023-03-22T05:27:44;99204.47;;;8.86;100.00
42591;BME280;28218;53.342;-6.216;2023-03-22T05:30:13;99203.03;;;8.83;100.00
42591;BME280;28218;53.342;-6.216;2023-03-22T05:32:41;99205.28;;;8.86;100.00
42591;BME280;28218;53.342;-6.216;2023-03-22T05:35:09;99203.81;;;8.84;100.00
42591;BME280;28218;53.342;-6.216;2023-03-22T05:37:38;99207.25;;;8.78;100.00
42591;BME280;28218;53.342;-6.216;2023-03-22T05:40:09;99196.38;;;8.87;100.00
42591;BME280;28218;53.342;-6.216;2023-03-22T05:42:38;99206.50;;;8.90;100.00
42591;BME280;28218;53.342;-6.216;2023-03-22T05:45:07;99208.13;;;8.91;100.00
42591;BME280;28218;53.342;-6.216;2023-03-22T05:47:36;99203.88;;;8.90;100.00
42591;BME280;28218;53.342;-6.216;2023-03-22T05:50:07;99207.31;;;8.91;100.00
42591;BME280;28218;53.342;-6.216;2023-03-22T05:52:35;99216.81;;;8.92;100.00
42591;BME280;28218;53.342;-6.216;2023-03-22T05:55:04;99207.13;;;8.92;100.00
42591;BME280;28218;53.342;-6.216;2023-03-22T05:57:34;99207.53;;;8.89;100.00
42591;BME280;28218;53.342;-6.216;2023-03-22T06:00:03;99208.69;;;8.87;100.00
42591;BME280;28218;53.342;-6.216;2023-03-22T06:02:36;99206.09;;;8.93;100.00
42591;BME280;28218;53.342;-6.216;2023-03-22T06:05:05;99212.38;;;8.92;100.00
42591;BME280;28218;53.342;-6.216;2023-03-22T06:07:33;99210.53;;;8.86;100.00
42591;BME280;28218;53.342;-6.216;2023-03-22T06:10:01;99218.19;;;8.88;100.00
42591;BME280;28218;53.342;-6.216;2023-03-22T06:12:30;99210.31;;;8.88;100.00
42591;BME280;28218;53.342;-6.216;2023-03-22T06:14:59;99223.50;;;8.94;100.00
42591;BME280;28218;53.342;-6.216;2023-03-22T06:17:27;99214.75;;;8.87;100.00
42591;BME280;28218;53.342;-6.216;2023-03-22T06:19:56;99224.25;;;8.88;100.00
42591;BME280;28218;53.342;-6.216;2023-03-22T06:22:24;99228.91;;;8.86;100.00
42591;BME280;28218;53.342;-6.216;2023-03-22T06:24:52;99226.88;;;8.82;100.00
42591;BME280;28218;53.342;-6.216;2023-03-22T06:27:21;99224.63;;;8.79;100.00
42591;BME280;28218;53.342;-6.216;2023-03-22T06:29:49;99233.13;;;8.81;100.00
42591;BME280;28218;53.342;-6.216;2023-03-22T06:32:21;99232.31;;;8.80;100.00
42591;BME280;28218;53.342;-6.216;2023-03-22T06:34:50;99227.06;;;8.80;100.00
42591;BME280;28218;53.342;-6.216;2023-03-22T06:37:18;99220.16;;;8.79;100.00
42591;BME280;28218;53.342;-6.216;2023-03-22T06:39:46;99224.03;;;8.83;100.00
42591;BME280;28218;53.342;-6.216;2023-03-22T06:42:15;99225.84;;;8.83;100.00
42591;BME280;28218;53.342;-6.216;2023-03-22T06:44:43;99214.97;;;8.86;100.00
42591;BME280;28218;53.342;-6.216;2023-03-22T06:47:11;99232.91;;;8.82;100.00
42591;BME280;28218;53.342;-6.216;2023-03-22T06:49:41;99224.66;;;8.85;100.00
42591;BME280;28218;53.342;-6.216;2023-03-22T06:52:09;99226.28;;;8.86;100.00
42591;BME280;28218;53.342;-6.216;2023-03-22T06:54:37;99231.47;;;8.80;100.00
42591;BME280;28218;53.342;-6.216;2023-03-22T06:57:05;99223.84;;;8.85;100.00
42591;BME280;28218;53.342;-6.216;2023-03-22T06:59:33;99215.13;;;8.84;100.00
42591;BME280;28218;53.342;-6.216;2023-03-22T07:02:02;99208.31;;;8.90;100.00
42591;BME280;28218;53.342;-6.216;2023-03-22T07:04:30;99208.50;;;8.88;100.00
42591;BME280;28218;53.342;-6.216;2023-03-22T07:07:00;99215.81;;;8.93;100.00
42591;BME280;28218;53.342;-6.216;2023-03-22T07:09:29;99207.75;;;8.94;100.00
42591;BME280;28218;53.342;-6.216;2023-03-22T07:11:57;99200.03;;;8.93;100.00
42591;BME280;28218;53.342;-6.216;2023-03-22T07:14:25;99195.81;;;8.99;100.00
42591;BME280;28218;53.342;-6.216;2023-03-22T07:16:53;99199.69;;;9.03;100.00
42591;BME280;28218;53.342;-6.216;2023-03-22T07:19:22;99197.69;;;9.05;100.00
42591;BME280;28218;53.342;-6.216;2023-03-22T07:21:51;99184.34;;;9.06;100.00
42591;BME280;28218;53.342;-6.216;2023-03-22T07:24:21;99195.06;;;9.05;100.00
42591;BME280;28218;53.342;-6.216;2023-03-22T07:26:49;99193.25;;;9.05;100.00
42591;BME280;28218;53.342;-6.216;2023-03-22T07:29:17;99194.66;;;9.08;100.00
42591;BME280;28218;53.342;-6.216;2023-03-22T07:31:45;99183.97;;;9.09;100.00
42591;BME280;28218;53.342;-6.216;2023-03-22T07:34:13;99201.72;;;9.07;100.00
42591;BME280;28218;53.342;-6.216;2023-03-22T07:36:42;99202.97;;;9.11;100.00
42591;BME280;28218;53.342;-6.216;2023-03-22T07:39:10;99196.09;;;9.17;100.00
42591;BME280;28218;53.342;-6.216;2023-03-22T07:41:40;99194.91;;;9.19;100.00
42591;BME280;28218;53.342;-6.216;2023-03-22T07:44:08;99197.34;;;9.21;100.00
42591;BME280;28218;53.342;-6.216;2023-03-22T07:46:43;99195.13;;;9.25;100.00
42591;BME280;28218;53.342;-6.216;2023-03-22T07:49:12;99210.47;;;9.21;100.00
42591;BME280;28218;53.342;-6.216;2023-03-22T07:51:40;99200.59;;;9.23;100.00
42591;BME280;28218;53.342;-6.216;2023-03-22T07:54:09;99206.06;;;9.28;100.00
42591;BME280;28218;53.342;-6.216;2023-03-22T07:56:44;99215.19;;;9.32;100.00
42591;BME280;28218;53.342;-6.216;2023-03-22T07:59:13;99195.56;;;9.35;100.00
42591;BME280;28218;53.342;-6.216;2023-03-22T08:01:42;99190.13;;;9.36;100.00
42591;BME280;28218;53.342;-6.216;2023-03-22T08:04:10;99186.88;;;9.41;100.00
42591;BME280;28218;53.342;-6.216;2023-03-22T08:06:39;99189.56;;;9.47;100.00
42591;BME280;28218;53.342;-6.216;2023-03-22T08:09:08;99190.16;;;9.50;100.00
42591;BME280;28218;53.342;-6.216;2023-03-22T08:11:36;99195.63;;;9.55;100.00
42591;BME280;28218;53.342;-6.216;2023-03-22T08:14:05;99190.59;;;9.60;100.00
42591;BME280;28218;53.342;-6.216;2023-03-22T08:16:34;99211.66;;;9.66;100.00
42591;BME280;28218;53.342;-6.216;2023-03-22T08:19:04;99197.91;;;9.71;100.00
42591;BME280;28218;53.342;-6.216;2023-03-22T08:21:33;99201.75;;;9.75;100.00
42591;BME280;28218;53.342;-6.216;2023-03-22T08:24:01;99183.75;;;9.79;100.00
42591;BME280;28218;53.342;-6.216;2023-03-22T08:26:29;99189.03;;;9.85;100.00
42591;BME280;28218;53.342;-6.216;2023-03-22T08:28:57;99179.28;;;9.92;100.00
42591;BME280;28218;53.342;-6.216;2023-03-22T08:31:27;99190.84;;;10.05;100.00
42591;BME280;28218;53.342;-6.216;2023-03-22T08:33:55;99187.59;;;10.16;100.00
42591;BME280;28218;53.342;-6.216;2023-03-22T08:36:23;99182.81;;;10.26;100.00
42591;BME280;28218;53.342;-6.216;2023-03-22T08:38:51;99176.50;;;10.40;100.00
42591;BME280;28218;53.342;-6.216;2023-03-22T08:41:20;99177.09;;;10.56;100.00
42591;BME280;28218;53.342;-6.216;2023-03-22T08:43:49;99173.00;;;10.66;100.00
42591;BME280;28218;53.342;-6.216;2023-03-22T08:46:17;99167.31;;;10.76;100.00
42591;BME280;28218;53.342;-6.216;2023-03-22T08:48:47;99161.78;;;10.91;100.00
42591;BME280;28218;53.342;-6.216;2023-03-22T08:51:17;99173.53;;;11.02;100.00
42591;BME280;28218;53.342;-6.216;2023-03-22T08:53:46;99175.72;;;11.11;100.00
42591;BME280;28218;53.342;-6.216;2023-03-22T08:56:15;99163.31;;;11.18;100.00
42591;BME280;28218;53.342;-6.216;2023-03-22T08:58:43;99183.53;;;11.31;100.00
42591;BME280;28218;53.342;-6.216;2023-03-22T09:01:13;99152.47;;;11.40;100.00
42591;BME280;28218;53.342;-6.216;2023-03-22T09:03:42;99157.25;;;11.49;100.00
42591;BME280;28218;53.342;-6.216;2023-03-22T09:06:12;99149.63;;;11.66;100.00
42591;BME280;28218;53.342;-6.216;2023-03-22T09:08:40;99163.22;;;11.70;100.00
42591;BME280;28218;53.342;-6.216;2023-03-22T09:11:09;99160.31;;;11.78;100.00
42591;BME280;28218;53.342;-6.216;2023-03-22T09:13:38;99171.09;;;11.83;100.00
42591;BME280;28218;53.342;-6.216;2023-03-22T09:16:07;99149.72;;;11.91;100.00
42591;BME280;28218;53.342;-6.216;2023-03-22T09:18:35;99150.94;;;11.89;100.00
42591;BME280;28218;53.342;-6.216;2023-03-22T09:21:04;99137.31;;;11.92;100.00
42591;BME280;28218;53.342;-6.216;2023-03-22T09:23:35;99138.50;;;11.96;100.00
42591;BME280;28218;53.342;-6.216;2023-03-22T09:26:05;99137.63;;;12.02;100.00
42591;BME280;28218;53.342;-6.216;2023-03-22T09:28:34;99142.03;;;12.08;100.00
42591;BME280;28218;53.342;-6.216;2023-03-22T09:31:06;99142.69;;;12.03;100.00
42591;BME280;28218;53.342;-6.216;2023-03-22T09:33:36;99141.47;;;12.06;100.00
42591;BME280;28218;53.342;-6.216;2023-03-22T09:36:05;99140.16;;;12.15;100.00
42591;BME280;28218;53.342;-6.216;2023-03-22T09:38:34;99140.38;;;12.14;100.00
42591;BME280;28218;53.342;-6.216;2023-03-22T09:41:04;99142.00;;;12.15;100.00
42591;BME280;28218;53.342;-6.216;2023-03-22T09:43:36;99125.88;;;12.23;100.00
42591;BME280;28218;53.342;-6.216;2023-03-22T09:46:10;99136.66;;;12.21;100.00
42591;BME280;28218;53.342;-6.216;2023-03-22T09:48:43;99143.69;;;12.27;100.00
42591;BME280;28218;53.342;-6.216;2023-03-22T09:51:24;99161.44;;;12.20;100.00
42591;BME280;28218;53.342;-6.216;2023-03-22T09:53:56;99143.22;;;12.12;100.00
42591;BME280;28218;53.342;-6.216;2023-03-22T09:56:26;99149.78;;;12.10;100.00
42591;BME280;28218;53.342;-6.216;2023-03-22T09:59:00;99145.41;;;11.97;100.00
42591;BME280;28218;53.342;-6.216;2023-03-22T10:01:37;99141.31;;;12.01;100.00
42591;BME280;28218;53.342;-6.216;2023-03-22T10:04:29;99151.00;;;12.07;100.00
42591;BME280;28218;53.342;-6.216;2023-03-22T10:07:05;99142.16;;;12.20;100.00
42591;BME280;28218;53.342;-6.216;2023-03-22T10:09:41;99141.13;;;12.21;100.00
42591;BME280;28218;53.342;-6.216;2023-03-22T10:12:21;99139.72;;;12.18;100.00
42591;BME280;28218;53.342;-6.216;2023-03-22T10:15:02;99142.69;;;12.28;100.00
42591;BME280;28218;53.342;-6.216;2023-03-22T10:17:31;99138.53;;;12.39;100.00
42591;BME280;28218;53.342;-6.216;2023-03-22T10:20:04;99128.88;;;12.51;100.00
42591;BME280;28218;53.342;-6.216;2023-03-22T10:22:39;99128.25;;;12.68;100.00
42591;BME280;28218;53.342;-6.216;2023-03-22T10:25:15;99110.94;;;12.90;100.00
42591;BME280;28218;53.342;-6.216;2023-03-22T10:27:45;99120.44;;;13.10;100.00
42591;BME280;28218;53.342;-6.216;2023-03-22T10:30:20;99122.41;;;13.33;100.00
42591;BME280;28218;53.342;-6.216;2023-03-22T10:32:51;99100.22;;;13.45;100.00
42591;BME280;28218;53.342;-6.216;2023-03-22T10:35:24;99112.22;;;13.60;100.00
42591;BME280;28218;53.342;-6.216;2023-03-22T10:37:54;99103.97;;;13.68;100.00
42591;BME280;28218;53.342;-6.216;2023-03-22T10:40:26;99108.81;;;13.71;100.00
42591;BME280;28218;53.342;-6.216;2023-03-22T10:42:58;99114.47;;;13.86;100.00
42591;BME280;28218;53.342;-6.216;2023-03-22T10:45:28;99118.50;;;14.00;100.00
42591;BME280;28218;53.342;-6.216;2023-03-22T10:48:01;99115.19;;;14.05;100.00
42591;BME280;28218;53.342;-6.216;2023-03-22T10:50:33;99110.22;;;14.20;100.00
42591;BME280;28218;53.342;-6.216;2023-03-22T10:53:05;99108.38;;;14.32;100.00
42591;BME280;28218;53.342;-6.216;2023-03-22T10:55:39;99120.81;;;14.44;100.00
42591;BME280;28218;53.342;-6.216;2023-03-22T10:58:11;99096.75;;;14.45;100.00
42591;BME280;28218;53.342;-6.216;2023-03-22T11:00:43;99105.88;;;14.49;100.00
42591;BME280;28218;53.342;-6.216;2023-03-22T11:03:27;99099.63;;;14.55;100.00
42591;BME280;28218;53.342;-6.216;2023-03-22T11:06:00;99109.84;;;14.75;100.00
42591;BME280;28218;53.342;-6.216;2023-03-22T11:08:37;99099.44;;;14.86;100.00
42591;BME280;28218;53.342;-6.216;2023-03-22T11:11:14;99108.19;;;14.98;100.00
42591;BME280;28218;53.342;-6.216;2023-03-22T11:13:48;99092.28;;;14.86;100.00
42591;BME280;28218;53.342;-6.216;2023-03-22T11:16:17;99096.84;;;14.74;100.00
42591;BME280;28218;53.342;-6.216;2023-03-22T11:18:46;99090.13;;;14.83;100.00
42591;BME280;28218;53.342;-6.216;2023-03-22T11:21:15;99099.94;;;14.82;100.00
42591;BME280;28218;53.342;-6.216;2023-03-22T11:23:52;99095.31;;;14.78;100.00
42591;BME280;28218;53.342;-6.216;2023-03-22T11:26:28;99072.97;;;14.74;100.00
42591;BME280;28218;53.342;-6.216;2023-03-22T11:29:12;99072.16;;;14.73;100.00
42591;BME280;28218;53.342;-6.216;2023-03-22T11:31:56;99072.06;;;14.68;100.00
42591;BME280;28218;53.342;-6.216;2023-03-22T11:34:27;99068.22;;;14.76;100.00
42591;BME280;28218;53.342;-6.216;2023-03-22T11:36:58;99066.56;;;14.87;100.00
42591;BME280;28218;53.342;-6.216;2023-03-22T11:39:27;99063.88;;;14.98;100.00
42591;BME280;28218;53.342;-6.216;2023-03-22T11:41:59;99076.09;;;14.99;100.00
42591;BME280;28218;53.342;-6.216;2023-03-22T11:44:31;99072.00;;;14.92;100.00
42591;BME280;28218;53.342;-6.216;2023-03-22T11:47:03;99084.66;;;14.90;100.00
42591;BME280;28218;53.342;-6.216;2023-03-22T11:49:38;99085.53;;;14.67;100.00
42591;BME280;28218;53.342;-6.216;2023-03-22T11:52:14;99058.03;;;14.56;100.00
42591;BME280;28218;53.342;-6.216;2023-03-22T11:54:45;99058.13;;;14.73;100.00
42591;BME280;28218;53.342;-6.216;2023-03-22T11:57:19;99056.38;;;14.78;100.00
42591;BME280;28218;53.342;-6.216;2023-03-22T11:59:53;99040.19;;;14.92;100.00
42591;BME280;28218;53.342;-6.216;2023-03-22T12:02:26;99032.63;;;15.00;100.00
42591;BME280;28218;53.342;-6.216;2023-03-22T12:04:59;99027.41;;;15.05;100.00
42591;BME280;28218;53.342;-6.216;2023-03-22T12:07:33;99039.88;;;15.05;100.00
42591;BME280;28218;53.342;-6.216;2023-03-22T12:10:09;99045.50;;;15.08;100.00
42591;BME280;28218;53.342;-6.216;2023-03-22T12:12:44;99042.22;;;15.18;100.00
42591;BME280;28218;53.342;-6.216;2023-03-22T12:15:17;99030.34;;;15.38;100.00
42591;BME280;28218;53.342;-6.216;2023-03-22T12:17:52;99039.28;;;15.31;100.00
42591;BME280;28218;53.342;-6.216;2023-03-22T12:20:35;99036.88;;;15.30;100.00
42591;BME280;28218;53.342;-6.216;2023-03-22T12:23:12;99035.56;;;15.16;100.00
42591;BME280;28218;53.342;-6.216;2023-03-22T12:25:45;99028.75;;;15.20;100.00
42591;BME280;28218;53.342;-6.216;2023-03-22T12:28:21;99040.16;;;15.20;100.00
42591;BME280;28218;53.342;-6.216;2023-03-22T12:30:51;99037.28;;;15.10;100.00
42591;BME280;28218;53.342;-6.216;2023-03-22T12:33:24;99026.03;;;15.03;100.00
42591;BME280;28218;53.342;-6.216;2023-03-22T12:35:56;99026.38;;;15.23;100.00
42591;BME280;28218;53.342;-6.216;2023-03-22T12:38:29;99025.94;;;15.43;100.00
42591;BME280;28218;53.342;-6.216;2023-03-22T12:41:03;99015.16;;;15.50;100.00
42591;BME280;28218;53.342;-6.216;2023-03-22T12:43:40;99011.38;;;15.46;100.00
42591;BME280;28218;53.342;-6.216;2023-03-22T12:46:14;99017.09;;;15.54;100.00
42591;BME280;28218;53.342;-6.216;2023-03-22T12:48:47;99013.06;;;15.52;100.00
42591;BME280;28218;53.342;-6.216;2023-03-22T12:51:16;99009.78;;;15.45;100.00
42591;BME280;28218;53.342;-6.216;2023-03-22T12:53:47;99010.03;;;15.43;100.00
42591;BME280;28218;53.342;-6.216;2023-03-22T12:56:17;99008.25;;;15.49;100.00
42591;BME280;28218;53.342;-6.216;2023-03-22T12:58:50;98997.69;;;15.71;100.00
42591;BME280;28218;53.342;-6.216;2023-03-22T13:01:22;98987.53;;;15.84;100.00
42591;BME280;28218;53.342;-6.216;2023-03-22T13:03:55;98986.88;;;15.94;100.00
42591;BME280;28218;53.342;-6.216;2023-03-22T13:06:31;98972.69;;;16.05;100.00
42591;BME280;28218;53.342;-6.216;2023-03-22T13:09:09;98964.66;;;16.00;100.00
42591;BME280;28218;53.342;-6.216;2023-03-22T13:11:42;98968.53;;;15.93;100.00
42591;BME280;28218;53.342;-6.216;2023-03-22T13:17:48;98946.69;;;16.07;100.00